createdAt,value
2018-03-20T00:02:15.546Z,18.30
2018-03-20T00:04:43.095Z,20.80
2018-03-20T00:07:10.695Z,17.73
2018-03-20T00:09:38.242Z,15.30
2018-03-20T00:12:05.805Z,17.30
2018-03-20T00:14:33.352Z,16.77
2018-03-20T00:17:00.908Z,16.57
2018-03-20T00:19:28.465Z,16.73
2018-03-20T00:21:56.033Z,17.43
2018-03-20T00:24:23.568Z,19.50
2018-03-20T00:26:51.091Z,14.77
2018-03-20T00:29:18.722Z,14.23
2018-03-20T00:31:46.256Z,14.87
2018-03-20T00:34:13.846Z,18.87
2018-03-20T00:36:41.399Z,15.27
2018-03-20T00:39:08.951Z,20.27
2018-03-20T00:41:36.624Z,20.30
2018-03-20T00:44:04.184Z,15.73
2018-03-20T00:46:31.716Z,16.42
2018-03-20T00:48:59.283Z,17.37
2018-03-20T00:51:26.807Z,16.87
2018-03-20T00:53:54.417Z,16.30
2018-03-20T00:56:21.984Z,17.97
2018-03-20T00:58:49.536Z,16.20
2018-03-20T01:01:17.119Z,17.43
2018-03-20T01:03:44.661Z,20.30
2018-03-20T01:06:12.214Z,16.60
2018-03-20T01:08:39.746Z,18.30
2018-03-20T01:11:07.312Z,16.63
2018-03-20T01:13:34.852Z,19.25
2018-03-20T01:16:02.406Z,17.57
2018-03-20T01:18:29.948Z,19.83
2018-03-20T01:20:57.487Z,17.63
2018-03-20T01:23:25.935Z,18.75
2018-03-20T01:25:53.469Z,18.90
2018-03-20T01:28:21.031Z,18.43
2018-03-20T01:30:48.563Z,17.47
2018-03-20T01:33:16.124Z,20.37
2018-03-20T01:35:43.649Z,17.63
2018-03-20T01:38:11.281Z,20.98
2018-03-20T01:40:38.806Z,19.97
2018-03-20T01:43:06.348Z,21.10
2018-03-20T01:45:33.904Z,18.30
2018-03-20T01:48:01.444Z,18.57
2018-03-20T01:50:29.005Z,20.97
2018-03-20T01:53:08.265Z,20.60
2018-03-20T01:55:35.845Z,17.97
2018-03-20T01:58:03.422Z,20.00
2018-03-20T02:00:31.049Z,19.85
2018-03-20T02:02:58.580Z,18.50
2018-03-20T02:05:26.651Z,19.02
2018-03-20T02:07:54.196Z,19.97
2018-03-20T02:10:21.737Z,18.83
2018-03-20T02:12:49.311Z,18.97
2018-03-20T02:15:16.864Z,23.10
2018-03-20T02:17:44.432Z,22.27
2018-03-20T02:20:11.968Z,16.87
2018-03-20T02:22:39.533Z,18.15
2018-03-20T02:25:07.055Z,20.53
2018-03-20T02:27:34.638Z,20.93
2018-03-20T02:30:02.184Z,18.10
2018-03-20T02:32:29.779Z,19.87
2018-03-20T02:34:57.310Z,18.40
2018-03-20T02:37:24.835Z,18.73
2018-03-20T02:39:52.403Z,17.13
2018-03-20T02:42:20.034Z,18.67
2018-03-20T02:44:47.599Z,17.12
2018-03-20T02:47:15.148Z,18.73
2018-03-20T02:49:42.716Z,21.15
2018-03-20T02:52:10.252Z,18.53
2018-03-20T02:54:37.812Z,18.80
2018-03-20T02:57:05.392Z,16.40
2018-03-20T02:59:32.982Z,16.80
2018-03-20T03:02:00.508Z,18.43
2018-03-20T03:04:28.062Z,17.83
2018-03-20T03:06:55.616Z,17.93
2018-03-20T03:09:23.157Z,14.77
2018-03-20T03:11:50.722Z,17.55
2018-03-20T03:14:18.297Z,18.00
2018-03-20T03:16:46.271Z,15.37
2018-03-20T03:19:14.022Z,14.73
2018-03-20T03:21:41.628Z,22.63
2018-03-20T03:24:10.131Z,16.60
2018-03-20T03:26:37.759Z,17.50
2018-03-20T03:29:05.522Z,17.73
2018-03-20T03:31:33.075Z,19.77
2018-03-20T03:34:00.635Z,21.67
2018-03-20T03:36:28.189Z,16.13
2018-03-20T03:38:55.768Z,17.58
2018-03-20T03:41:23.295Z,15.20
2018-03-20T03:43:50.925Z,13.65
2018-03-20T03:46:18.472Z,16.47
2018-03-20T03:48:46.178Z,15.20
2018-03-20T03:51:13.709Z,17.73
2018-03-20T03:53:41.265Z,21.33
2018-03-20T03:56:08.850Z,20.98
2018-03-20T03:58:36.375Z,21.55
2018-03-20T04:01:03.938Z,17.62
2018-03-20T04:03:31.485Z,14.77
2018-03-20T04:05:59.057Z,13.77
2018-03-20T04:08:27.064Z,14.20
2018-03-20T04:10:54.617Z,12.97
2018-03-20T04:13:22.162Z,14.70
2018-03-20T04:15:49.740Z,13.63
2018-03-20T04:18:17.271Z,15.40
2018-03-20T04:20:44.797Z,12.37
2018-03-20T04:23:12.348Z,15.20
2018-03-20T04:25:39.884Z,16.60
2018-03-20T04:28:07.435Z,15.10
2018-03-20T04:30:34.954Z,13.85
2018-03-20T04:33:02.528Z,12.97
2018-03-20T04:35:30.056Z,12.43
2018-03-20T04:37:57.613Z,10.47
2018-03-20T04:40:25.128Z,13.20
2018-03-20T04:42:52.716Z,12.83
2018-03-20T04:45:20.252Z,13.50
2018-03-20T04:47:47.808Z,13.20
2018-03-20T04:50:15.351Z,12.27
2018-03-20T04:52:42.936Z,13.63
2018-03-20T04:55:10.509Z,10.47
2018-03-20T04:57:38.043Z,13.23
2018-03-20T05:00:05.709Z,14.80
2018-03-20T05:02:33.236Z,14.23
2018-03-20T05:05:00.800Z,14.33
2018-03-20T05:07:28.344Z,11.50
2018-03-20T05:09:55.899Z,13.97
2018-03-20T05:12:23.423Z,16.07
2018-03-20T05:14:50.959Z,14.40
2018-03-20T05:17:18.545Z,14.93
2018-03-20T05:19:51.684Z,15.07
2018-03-20T05:25:22.260Z,11.03
2018-03-20T05:27:49.827Z,13.43
2018-03-20T05:30:17.371Z,16.03
2018-03-20T05:32:44.948Z,14.87
2018-03-20T05:35:12.502Z,18.90
2018-03-20T05:37:40.067Z,15.02
2018-03-20T05:40:07.603Z,15.53
2018-03-20T05:42:35.163Z,15.27
2018-03-20T05:45:02.711Z,15.57
2018-03-20T05:47:35.929Z,15.43
2018-03-20T05:50:09.156Z,19.08
2018-03-20T05:52:36.707Z,15.27
2018-03-20T05:55:04.455Z,18.57
2018-03-20T05:57:32.037Z,19.03
2018-03-20T05:59:59.617Z,32.50
2018-03-20T06:02:27.155Z,32.10
2018-03-20T06:04:54.723Z,23.57
2018-03-20T06:07:22.333Z,29.85
2018-03-20T06:09:49.888Z,32.60
2018-03-20T06:12:17.433Z,25.50
2018-03-20T06:14:45.142Z,21.63
2018-03-20T06:17:12.832Z,23.23
2018-03-20T06:19:42.975Z,25.13
2018-03-20T06:22:10.588Z,22.30
2018-03-20T06:24:38.226Z,20.60
2018-03-20T06:27:05.742Z,22.23
2018-03-20T06:29:33.749Z,24.53
2018-03-20T06:32:01.319Z,20.42
2018-03-20T06:34:29.329Z,24.52
2018-03-20T06:36:56.890Z,22.03
2018-03-20T06:39:24.501Z,21.07
2018-03-20T06:41:52.057Z,22.23
2018-03-20T06:44:19.590Z,21.13
2018-03-20T06:46:47.168Z,19.60
2018-03-20T06:49:14.712Z,27.30
2018-03-20T06:51:42.289Z,21.42
2018-03-20T06:54:09.811Z,17.60
2018-03-20T06:56:37.414Z,16.33
2018-03-20T06:59:05.676Z,22.67
2018-03-20T07:01:34.507Z,20.37
2018-03-20T07:04:02.096Z,14.30
2018-03-20T07:06:29.881Z,27.23
2018-03-20T07:08:57.683Z,14.07
2018-03-20T07:11:25.224Z,17.23
2018-03-20T07:13:55.940Z,14.93
2018-03-20T07:16:23.670Z,14.50
2018-03-20T07:18:51.249Z,14.93
2018-03-20T07:21:18.789Z,13.50
2018-03-20T07:23:46.348Z,15.15
2018-03-20T07:26:13.872Z,11.93
2018-03-20T07:28:41.391Z,15.25
2018-03-20T07:31:08.979Z,12.98
2018-03-20T07:33:36.498Z,15.07
2018-03-20T07:36:06.646Z,12.10
2018-03-20T07:38:34.397Z,14.47
2018-03-20T07:41:04.577Z,13.40
2018-03-20T07:43:32.379Z,12.97
2018-03-20T07:46:00.143Z,14.23
2018-03-20T07:48:27.691Z,11.37
2018-03-20T07:50:55.623Z,10.27
2018-03-20T07:53:23.132Z,9.43
2018-03-20T07:55:50.727Z,13.43
2018-03-20T07:58:18.237Z,10.00
2018-03-20T08:00:45.771Z,13.77
2018-03-20T08:03:13.396Z,9.10
2018-03-20T08:05:40.932Z,8.43
2018-03-20T08:08:08.560Z,10.60
2018-03-20T08:10:36.090Z,8.07
2018-03-20T08:13:03.659Z,10.63
2018-03-20T08:15:32.152Z,9.85
2018-03-20T08:17:59.738Z,9.40
2018-03-20T08:20:27.289Z,9.50
2018-03-20T08:22:54.852Z,10.87
2018-03-20T08:25:22.400Z,9.63
2018-03-20T08:27:50.010Z,9.30
2018-03-20T08:30:17.559Z,10.70
2018-03-20T08:32:45.083Z,13.35
2018-03-20T08:35:12.629Z,8.67
2018-03-20T08:37:40.206Z,9.83
2018-03-20T08:40:07.909Z,13.43
2018-03-20T08:42:35.446Z,11.50
2018-03-20T08:45:03.030Z,11.97
2018-03-20T08:47:30.552Z,13.53
2018-03-20T08:49:58.086Z,11.67
2018-03-20T08:52:25.631Z,12.77
2018-03-20T08:54:53.162Z,12.77
2018-03-20T08:57:20.699Z,13.67
2018-03-20T08:59:48.255Z,20.03
2018-03-20T09:02:16.570Z,15.73
2018-03-20T09:04:44.468Z,10.75
2018-03-20T09:07:12.160Z,12.90
2018-03-20T09:09:39.694Z,13.03
2018-03-20T09:12:09.377Z,11.67
2018-03-20T09:14:36.884Z,7.70
2018-03-20T09:17:04.778Z,8.55
2018-03-20T09:19:32.599Z,10.47
2018-03-20T09:22:04.450Z,9.47
2018-03-20T09:24:32.386Z,9.20
2018-03-20T09:27:00.278Z,8.23
2018-03-20T09:29:28.005Z,8.70
2018-03-20T09:31:55.518Z,8.88
2018-03-20T09:34:23.287Z,9.80
2018-03-20T09:36:50.918Z,7.83
2018-03-20T09:39:19.455Z,8.93
2018-03-20T09:41:47.027Z,8.97
2018-03-20T09:44:14.627Z,12.98
2018-03-20T09:46:42.487Z,11.67
2018-03-20T09:49:10.171Z,10.27
2018-03-20T09:51:37.761Z,8.40
2018-03-20T09:54:05.686Z,11.05
2018-03-20T09:56:33.222Z,9.77
2018-03-20T09:59:00.740Z,9.03
2018-03-20T10:01:28.313Z,8.30
2018-03-20T10:03:55.840Z,12.63
2018-03-20T10:06:23.400Z,8.10
2018-03-20T10:08:50.932Z,8.87
2018-03-20T10:11:18.500Z,10.57
2018-03-20T10:13:46.031Z,14.47
2018-03-20T10:16:13.600Z,8.52
2018-03-20T10:18:44.062Z,7.90
2018-03-20T10:21:13.061Z,10.70
2018-03-20T10:23:44.433Z,8.98
2018-03-20T10:26:13.932Z,9.52
2018-03-20T10:28:44.067Z,10.00
2018-03-20T10:31:13.168Z,9.40
2018-03-20T10:33:42.967Z,8.20
2018-03-20T10:36:13.262Z,7.20
2018-03-20T10:38:41.507Z,9.60
2018-03-20T10:41:09.253Z,8.87
2018-03-20T10:43:41.969Z,8.10
2018-03-20T10:46:10.283Z,8.80
2018-03-20T10:48:40.534Z,7.20
2018-03-20T10:51:10.498Z,8.43
2018-03-20T10:53:41.757Z,9.80
2018-03-20T10:56:10.588Z,9.27
2018-03-20T10:58:41.975Z,9.25
2018-03-20T11:01:15.411Z,8.33
2018-03-20T11:03:42.959Z,9.70
2018-03-20T11:06:13.411Z,10.57
2018-03-20T11:08:44.269Z,7.45
2018-03-20T11:11:14.501Z,11.03
2018-03-20T11:13:45.123Z,8.03
2018-03-20T11:16:15.646Z,8.03
2018-03-20T11:18:44.225Z,10.97
2018-03-20T11:21:14.948Z,8.97
2018-03-20T11:23:46.094Z,8.00
2018-03-20T11:26:13.722Z,12.30
2018-03-20T11:28:47.725Z,9.20
2018-03-20T11:31:19.007Z,12.60
2018-03-20T11:33:50.675Z,8.10
2018-03-20T11:36:21.202Z,13.10
2018-03-20T11:38:48.934Z,9.70
2018-03-20T11:41:18.380Z,8.93
2018-03-20T11:43:47.682Z,7.57
2018-03-20T11:46:15.396Z,13.00
2018-03-20T11:48:43.054Z,9.03
2018-03-20T11:51:15.875Z,9.35
2018-03-20T11:53:49.146Z,8.17
2018-03-20T11:56:22.244Z,9.70
2018-03-20T11:58:52.208Z,7.63
2018-03-20T12:01:20.497Z,10.13
2018-03-20T12:03:50.839Z,12.10
2018-03-20T12:06:19.928Z,10.77
2018-03-20T12:08:51.276Z,11.77
2018-03-20T12:11:18.783Z,7.93
2018-03-20T12:13:46.356Z,9.48
2018-03-20T12:16:13.868Z,7.90
2018-03-20T12:18:41.406Z,10.25
2018-03-20T12:21:08.911Z,6.87
2018-03-20T12:23:36.525Z,8.77
2018-03-20T12:26:04.044Z,8.27
2018-03-20T12:28:31.596Z,10.13
2018-03-20T12:30:59.131Z,11.43
2018-03-20T12:33:26.670Z,9.93
2018-03-20T12:35:54.232Z,9.17
2018-03-20T12:38:21.776Z,12.13
2018-03-20T12:40:49.343Z,10.83
2018-03-20T12:43:16.860Z,10.40
2018-03-20T12:45:44.437Z,11.93
2018-03-20T12:48:11.945Z,13.10
2018-03-20T12:50:39.497Z,10.52
2018-03-20T12:53:07.020Z,9.03
2018-03-20T12:55:34.572Z,9.03
2018-03-20T12:58:02.248Z,9.07
2018-03-20T13:00:29.856Z,8.10
2018-03-20T13:02:57.377Z,9.43
2018-03-20T13:05:24.965Z,10.63
2018-03-20T13:07:52.589Z,10.40
2018-03-20T13:10:20.152Z,9.87
2018-03-20T13:12:47.667Z,9.80
2018-03-20T13:15:15.219Z,11.33
2018-03-20T13:17:42.790Z,12.35
2018-03-20T13:20:10.348Z,15.27
2018-03-20T13:22:37.903Z,12.30
2018-03-20T13:25:06.229Z,12.50
2018-03-20T13:27:34.318Z,10.70
2018-03-20T13:30:03.418Z,11.07
2018-03-20T13:32:30.974Z,11.57
2018-03-20T13:35:01.092Z,11.77
2018-03-20T13:37:28.827Z,14.47
2018-03-20T13:39:57.132Z,12.52
2018-03-20T13:42:24.731Z,13.40
2018-03-20T13:44:55.085Z,13.30
2018-03-20T13:47:26.899Z,12.87
2018-03-20T13:49:54.620Z,10.10
2018-03-20T13:52:22.144Z,15.77
2018-03-20T13:54:50.232Z,9.90
2018-03-20T13:57:17.743Z,8.77
2018-03-20T13:59:45.310Z,9.23
2018-03-20T14:02:13.504Z,9.90
2018-03-20T14:04:41.066Z,8.30
2018-03-20T14:07:08.618Z,17.87
2018-03-20T14:09:36.449Z,8.90
2018-03-20T14:12:04.267Z,7.77
2018-03-20T14:14:31.892Z,11.43
2018-03-20T14:16:59.439Z,9.20
2018-03-20T14:19:26.979Z,9.40
2018-03-20T14:21:57.087Z,8.30
2018-03-20T14:24:28.345Z,8.88
2018-03-20T14:26:59.943Z,10.27
2018-03-20T14:29:31.963Z,8.00
2018-03-20T14:32:04.103Z,9.77
2018-03-20T14:34:35.476Z,9.97
2018-03-20T14:37:06.401Z,7.37
2018-03-20T14:42:14.763Z,8.13
2018-03-20T14:44:47.562Z,8.67
2018-03-20T14:47:23.420Z,10.93
2018-03-20T14:49:55.621Z,11.73
2018-03-20T14:52:31.882Z,9.40
2018-03-20T14:55:03.428Z,8.07
2018-03-20T14:57:37.954Z,7.97
2018-03-20T15:00:19.916Z,8.87
2018-03-20T15:02:54.244Z,9.40
2018-03-20T15:05:26.298Z,8.80
2018-03-20T15:07:58.728Z,7.50
2018-03-20T15:10:29.623Z,8.63
2018-03-20T15:13:00.908Z,7.83
2018-03-20T15:15:31.778Z,7.23
2018-03-20T15:18:03.797Z,7.80
2018-03-20T15:20:36.873Z,7.13
2018-03-20T15:23:07.487Z,9.80
2018-03-20T15:25:40.033Z,7.10
2018-03-20T15:28:11.297Z,9.97
2018-03-20T15:30:43.242Z,10.38
2018-03-20T15:33:14.294Z,7.70
2018-03-20T15:35:47.108Z,7.07
2018-03-20T15:38:19.657Z,6.33
2018-03-20T15:40:50.579Z,5.53
2018-03-20T15:43:22.080Z,6.40
2018-03-20T15:45:53.024Z,6.30
2018-03-20T15:48:24.864Z,5.73
2018-03-20T15:50:55.569Z,7.93
2018-03-20T15:53:26.613Z,6.15
2018-03-20T15:55:58.468Z,6.43
2018-03-20T15:58:31.092Z,7.60
2018-03-20T16:00:59.875Z,5.93
2018-03-20T16:03:29.429Z,6.12
2018-03-20T16:05:59.398Z,5.28
2018-03-20T16:08:32.064Z,4.73
2018-03-20T16:11:00.224Z,5.23
2018-03-20T16:13:27.972Z,8.18
2018-03-20T16:15:55.482Z,5.63
2018-03-20T16:18:27.373Z,5.85
2018-03-20T16:20:57.978Z,4.10
2018-03-20T16:23:26.005Z,4.03
2018-03-20T16:25:53.639Z,3.80
2018-03-20T16:28:23.517Z,5.15
2018-03-20T16:30:53.575Z,3.90
2018-03-20T16:33:22.264Z,3.63
2018-03-20T16:35:51.355Z,3.57
2018-03-20T16:38:19.111Z,6.25
2018-03-20T16:40:46.656Z,4.27
2018-03-20T16:43:16.871Z,3.27
2018-03-20T16:45:45.364Z,2.93
2018-03-20T16:48:13.505Z,2.47
2018-03-20T16:50:41.898Z,3.23
2018-03-20T16:53:10.817Z,2.73
2018-03-20T16:55:43.053Z,2.20
2018-03-20T16:58:11.325Z,2.08
2018-03-20T17:00:39.252Z,2.43
2018-03-20T17:03:07.569Z,2.20
2018-03-20T17:05:35.602Z,3.47
2018-03-20T17:08:04.360Z,3.40
2018-03-20T17:10:31.906Z,1.93
2018-03-20T17:13:01.501Z,2.10
2018-03-20T17:15:31.049Z,3.58
2018-03-20T17:18:02.693Z,2.93
2018-03-20T17:20:30.641Z,2.80
2018-03-20T17:23:01.924Z,1.83
2018-03-20T17:25:31.993Z,1.77
2018-03-20T17:28:02.542Z,4.50
2018-03-20T17:30:32.594Z,2.85
2018-03-20T17:33:03.821Z,2.47
2018-03-20T17:35:38.697Z,1.80
2018-03-20T17:38:06.926Z,2.73
2018-03-20T17:40:35.462Z,2.60
2018-03-20T17:43:03.255Z,3.97
2018-03-20T17:45:34.827Z,1.40
2018-03-20T17:48:02.388Z,2.90
2018-03-20T17:50:29.922Z,1.70
2018-03-20T17:52:57.474Z,1.85
2018-03-20T17:55:25.004Z,1.67
2018-03-20T17:57:52.561Z,2.35
2018-03-20T18:00:20.082Z,1.80
2018-03-20T18:02:47.636Z,1.90
2018-03-20T18:05:15.172Z,2.10
2018-03-20T18:07:42.687Z,2.00
2018-03-20T18:10:10.230Z,2.10
2018-03-20T18:12:37.751Z,1.70
2018-03-20T18:15:05.436Z,2.20
2018-03-20T18:17:32.991Z,2.27
2018-03-20T18:20:00.548Z,1.92
2018-03-20T18:22:28.100Z,2.35
2018-03-20T18:24:55.642Z,2.23
2018-03-20T18:27:23.221Z,3.07
2018-03-20T18:29:51.110Z,2.43
2018-03-20T18:32:18.663Z,2.33
2018-03-20T18:34:46.883Z,2.20
2018-03-20T18:37:15.629Z,3.47
2018-03-20T18:39:43.233Z,2.43
2018-03-20T18:42:10.783Z,3.45
2018-03-20T18:44:38.291Z,2.80
2018-03-20T18:47:05.963Z,2.20
2018-03-20T18:49:33.491Z,2.77
2018-03-20T18:52:01.039Z,4.53
2018-03-20T18:54:28.743Z,2.50
2018-03-20T18:56:56.320Z,2.90
2018-03-20T18:59:23.844Z,3.47
2018-03-20T19:01:51.404Z,5.60
2018-03-20T19:04:18.956Z,3.43
2018-03-20T19:06:46.559Z,3.10
2018-03-20T19:09:14.128Z,5.43
2018-03-20T19:11:41.768Z,3.37
2018-03-20T19:14:09.371Z,3.67
2018-03-20T19:16:37.018Z,3.75
2018-03-20T19:19:05.600Z,2.92
2018-03-20T19:21:33.385Z,2.37
2018-03-20T19:24:00.929Z,2.90
2018-03-20T19:26:28.687Z,2.80
2018-03-20T19:28:56.315Z,4.33
2018-03-20T19:31:24.569Z,5.90
2018-03-20T19:33:52.104Z,8.13
2018-03-20T19:36:19.788Z,5.90
2018-03-20T19:38:48.088Z,7.78
2018-03-20T19:41:15.829Z,8.93
2018-03-20T19:43:43.376Z,11.07
2018-03-20T19:46:11.411Z,6.80
2018-03-20T19:48:38.931Z,9.47
2018-03-20T19:51:11.514Z,6.83
2018-03-20T19:53:39.152Z,7.47
2018-03-20T19:56:06.848Z,8.67
2018-03-20T19:58:34.378Z,8.77
2018-03-20T20:01:01.929Z,5.77
2018-03-20T20:03:29.495Z,8.93
2018-03-20T20:05:57.085Z,5.17
2018-03-20T20:08:24.660Z,6.43
2018-03-20T20:10:52.228Z,6.77
2018-03-20T20:13:19.772Z,6.17
2018-03-20T20:15:47.307Z,6.50
2018-03-20T20:18:14.857Z,8.00
2018-03-20T20:20:42.409Z,6.30
2018-03-20T20:23:09.962Z,6.57
2018-03-20T20:25:37.523Z,4.90
2018-03-20T20:28:05.081Z,5.73
2018-03-20T20:30:32.688Z,4.75
2018-03-20T20:33:00.245Z,5.97
2018-03-20T20:35:27.784Z,4.83
2018-03-20T20:37:55.367Z,6.70
2018-03-20T20:40:22.892Z,5.37
2018-03-20T20:42:50.440Z,4.60
2018-03-20T20:45:17.952Z,4.73
2018-03-20T20:47:45.487Z,5.47
2018-03-20T20:50:13.033Z,4.83
2018-03-20T20:52:40.560Z,7.07
2018-03-20T20:55:08.114Z,4.90
2018-03-20T20:57:35.675Z,4.70
2018-03-20T21:00:03.263Z,5.40
2018-03-20T21:02:30.771Z,5.97
2018-03-20T21:04:58.329Z,9.27
2018-03-20T21:07:25.880Z,7.30
2018-03-20T21:09:53.407Z,6.83
2018-03-20T21:12:21.878Z,7.43
2018-03-20T21:14:49.401Z,12.27
2018-03-20T21:17:17.494Z,19.63
2018-03-20T21:19:45.020Z,16.43
2018-03-20T21:22:12.584Z,19.23
2018-03-20T21:24:40.580Z,23.93
2018-03-20T21:27:08.240Z,21.97
2018-03-20T21:29:35.823Z,19.77
2018-03-20T21:32:03.784Z,20.07
2018-03-20T21:34:31.685Z,25.48
2018-03-20T21:36:59.353Z,27.60
2018-03-20T21:39:26.886Z,24.65
2018-03-20T21:41:55.566Z,26.07
2018-03-20T21:44:24.628Z,23.10
2018-03-20T21:46:53.040Z,19.17
2018-03-20T21:49:20.577Z,24.40
2018-03-20T21:51:48.488Z,19.27
2018-03-20T21:54:16.404Z,25.03
2018-03-20T21:56:44.005Z,26.67
2018-03-20T21:59:12.223Z,28.23
2018-03-20T22:01:39.791Z,34.33
2018-03-20T22:04:07.408Z,29.93
2018-03-20T22:06:35.011Z,26.62
2018-03-20T22:09:02.750Z,29.63
2018-03-20T22:11:30.510Z,27.23
2018-03-20T22:13:58.333Z,21.57
2018-03-20T22:16:26.271Z,24.23
2018-03-20T22:18:54.246Z,26.17
2018-03-20T22:21:22.766Z,23.67
2018-03-20T22:23:50.323Z,22.13
2018-03-20T22:26:18.045Z,23.47
2018-03-20T22:28:46.230Z,20.43
2018-03-20T22:31:13.783Z,20.70
2018-03-20T22:33:41.405Z,18.98
2018-03-20T22:36:09.660Z,20.37
2018-03-20T22:38:37.954Z,23.27
2018-03-20T22:41:05.497Z,22.00
2018-03-20T22:43:33.243Z,23.08
2018-03-20T22:46:01.042Z,26.33
2018-03-20T22:48:29.352Z,21.13
2018-03-20T22:50:56.896Z,24.13
2018-03-20T22:53:25.471Z,26.10
2018-03-20T22:55:54.738Z,27.35
2018-03-20T22:58:22.519Z,35.43
2018-03-20T23:00:50.063Z,28.57
2018-03-20T23:03:18.033Z,27.97
2018-03-20T23:05:45.716Z,28.23
2018-03-20T23:08:13.283Z,27.23
2018-03-20T23:10:40.818Z,26.07
2018-03-20T23:13:08.376Z,29.00
2018-03-20T23:15:35.919Z,26.17
2018-03-20T23:18:03.476Z,24.83
2018-03-20T23:20:31.069Z,24.47
2018-03-20T23:23:01.058Z,21.83
2018-03-20T23:25:28.685Z,21.80
2018-03-20T23:27:57.054Z,23.67
2018-03-20T23:30:25.456Z,20.98
2018-03-20T23:32:54.187Z,26.97
2018-03-20T23:35:22.986Z,21.40
2018-03-20T23:37:50.841Z,24.07
2018-03-20T23:40:18.740Z,24.17
2018-03-20T23:42:46.301Z,24.73
2018-03-20T23:45:14.015Z,19.70
2018-03-20T23:47:42.141Z,20.33
2018-03-20T23:50:09.963Z,18.65
2018-03-20T23:52:37.889Z,22.40
2018-03-20T23:55:06.503Z,20.00
2018-03-20T23:57:34.127Z,18.57
